createdAt,value
2018-06-08T00:02:02.215Z,19.30
2018-06-08T00:04:29.818Z,19.30
2018-06-08T00:06:57.372Z,19.30
2018-06-08T00:09:25.068Z,19.40
2018-06-08T00:11:52.620Z,19.40
2018-06-08T00:14:20.193Z,19.40
2018-06-08T00:16:48.023Z,19.40
2018-06-08T00:19:15.664Z,19.40
2018-06-08T00:21:43.308Z,19.50
2018-06-08T00:24:10.874Z,19.50
2018-06-08T00:26:38.480Z,19.60
2018-06-08T00:29:06.058Z,19.70
2018-06-08T00:31:33.667Z,19.60
2018-06-08T00:34:01.252Z,19.60
2018-06-08T00:36:28.794Z,19.60
2018-06-08T00:38:56.414Z,19.60
2018-06-08T00:41:23.984Z,19.70
2018-06-08T00:43:51.565Z,19.70
2018-06-08T00:46:19.104Z,19.70
2018-06-08T00:48:48.490Z,19.70
2018-06-08T00:51:16.200Z,19.70
2018-06-08T00:53:43.792Z,19.70
2018-06-08T00:57:20.563Z,19.70
2018-06-08T00:59:48.122Z,19.70
2018-06-08T01:02:15.840Z,19.80
2018-06-08T01:04:43.460Z,19.80
2018-06-08T01:07:11.184Z,19.80
2018-06-08T01:09:38.784Z,19.70
2018-06-08T01:12:07.019Z,19.80
2018-06-08T01:14:34.585Z,19.80
2018-06-08T01:17:05.313Z,19.80
2018-06-08T01:19:33.660Z,19.80
2018-06-08T01:22:01.673Z,19.90
2018-06-08T01:24:29.296Z,19.80
2018-06-08T01:26:56.976Z,19.80
2018-06-08T01:29:24.571Z,19.80
2018-06-08T01:31:52.228Z,19.80
2018-06-08T01:34:19.827Z,19.80
2018-06-08T01:36:47.388Z,19.70
2018-06-08T01:39:14.993Z,19.60
2018-06-08T01:41:42.557Z,19.60
2018-06-08T01:44:10.163Z,19.60
2018-06-08T01:46:37.716Z,19.50
2018-06-08T01:49:05.600Z,19.50
2018-06-08T01:51:33.293Z,19.50
2018-06-08T01:54:00.880Z,19.60
2018-06-08T01:56:29.040Z,19.50
2018-06-08T01:58:56.959Z,19.60
2018-06-08T02:01:24.574Z,19.50
2018-06-08T02:03:52.172Z,19.60
2018-06-08T02:06:19.768Z,19.60
2018-06-08T02:08:47.432Z,19.50
2018-06-08T02:11:15.393Z,19.50
2018-06-08T02:13:42.956Z,19.50
2018-06-08T02:16:10.539Z,19.60
2018-06-08T02:18:38.092Z,19.50
2018-06-08T02:21:05.679Z,19.50
2018-06-08T02:23:33.287Z,19.60
2018-06-08T02:26:00.840Z,19.60
2018-06-08T02:28:28.429Z,19.60
2018-06-08T02:30:56.124Z,19.60
2018-06-08T02:33:23.728Z,19.70
2018-06-08T02:35:51.297Z,19.70
2018-06-08T02:38:19.088Z,19.70
2018-06-08T02:40:46.684Z,19.60
2018-06-08T02:43:14.313Z,19.60
2018-06-08T02:45:41.996Z,19.60
2018-06-08T02:48:09.562Z,19.60
2018-06-08T02:50:37.180Z,19.50
2018-06-08T02:53:04.789Z,19.50
2018-06-08T02:57:59.936Z,19.50
2018-06-08T03:00:27.564Z,19.50
2018-06-08T03:05:22.582Z,19.50
2018-06-08T03:07:50.175Z,19.50
2018-06-08T03:10:17.722Z,19.50
2018-06-08T03:12:45.293Z,19.50
2018-06-08T03:15:12.921Z,19.50
2018-06-08T03:17:40.513Z,19.50
2018-06-08T03:20:08.170Z,19.50
2018-06-08T03:22:35.912Z,19.40
2018-06-08T03:25:03.530Z,19.50
2018-06-08T03:27:31.131Z,19.50
2018-06-08T03:29:58.689Z,19.50
2018-06-08T03:32:26.267Z,19.50
2018-06-08T03:34:53.945Z,19.50
2018-06-08T03:37:21.520Z,19.50
2018-06-08T03:39:49.065Z,19.50
2018-06-08T03:42:16.647Z,19.50
2018-06-08T03:44:44.232Z,19.50
2018-06-08T03:47:11.805Z,19.50
2018-06-08T03:49:39.428Z,19.50
2018-06-08T03:52:07.028Z,19.50
2018-06-08T03:57:02.076Z,19.50
2018-06-08T03:59:29.686Z,19.50
2018-06-08T04:01:57.297Z,19.60
2018-06-08T04:04:24.939Z,19.50
2018-06-08T04:06:52.504Z,19.50
2018-06-08T04:09:20.104Z,19.50
2018-06-08T04:11:47.691Z,19.50
2018-06-08T04:14:15.325Z,19.50
2018-06-08T04:16:42.936Z,19.50
2018-06-08T04:19:10.604Z,19.50
2018-06-08T04:21:38.169Z,19.50
2018-06-08T04:24:05.851Z,19.50
2018-06-08T04:26:33.427Z,19.60
2018-06-08T04:29:01.007Z,19.60
2018-06-08T04:31:28.663Z,19.50
2018-06-08T04:33:56.207Z,19.50
2018-06-08T04:36:23.999Z,19.50
2018-06-08T04:38:51.632Z,19.50
2018-06-08T04:41:19.281Z,19.50
2018-06-08T04:43:47.000Z,19.60
2018-06-08T04:46:14.559Z,19.60
2018-06-08T04:48:42.111Z,19.50
2018-06-08T04:51:09.664Z,19.50
2018-06-08T04:53:37.264Z,19.70
2018-06-08T04:56:04.924Z,19.70
2018-06-08T04:58:32.505Z,19.70
2018-06-08T05:01:00.158Z,19.70
2018-06-08T05:03:27.736Z,19.60
2018-06-08T05:05:55.340Z,19.60
2018-06-08T05:08:22.974Z,19.60
2018-06-08T05:10:50.830Z,19.60
2018-06-08T05:13:18.937Z,19.60
2018-06-08T05:15:46.500Z,19.60
2018-06-08T05:18:14.119Z,19.60
2018-06-08T05:20:41.707Z,19.50
2018-06-08T05:23:09.252Z,19.60
2018-06-08T05:25:36.805Z,19.60
2018-06-08T05:28:04.417Z,19.70
2018-06-08T05:30:32.109Z,19.60
2018-06-08T05:32:59.665Z,19.70
2018-06-08T05:37:55.023Z,19.70
2018-06-08T05:40:22.670Z,19.80
2018-06-08T05:42:50.309Z,19.80
2018-06-08T05:45:17.868Z,19.90
2018-06-08T05:47:45.555Z,19.90
2018-06-08T05:50:13.092Z,19.90
2018-06-08T05:52:40.642Z,20.00
2018-06-08T05:55:08.243Z,20.10
2018-06-08T06:00:03.800Z,20.10
2018-06-08T06:02:31.384Z,20.20
2018-06-08T06:04:59.087Z,20.20
2018-06-08T06:07:26.756Z,20.30
2018-06-08T06:09:54.381Z,20.40
2018-06-08T06:12:22.080Z,20.40
2018-06-08T06:14:49.663Z,20.40
2018-06-08T06:17:17.219Z,20.50
2018-06-08T06:19:44.849Z,20.60
2018-06-08T06:22:12.496Z,20.70
2018-06-08T06:24:40.160Z,20.70
2018-06-08T06:27:08.176Z,20.70
2018-06-08T06:29:36.075Z,20.70
2018-06-08T06:32:05.052Z,20.70
2018-06-08T06:34:32.639Z,20.70
2018-06-08T06:37:00.433Z,20.80
2018-06-08T06:39:28.103Z,20.90
2018-06-08T06:41:56.548Z,20.90
2018-06-08T06:44:24.839Z,21.00
2018-06-08T06:46:55.480Z,21.10
2018-06-08T06:49:23.981Z,21.10
2018-06-08T06:51:51.806Z,21.10
2018-06-08T06:54:19.414Z,21.10
2018-06-08T06:56:47.110Z,21.30
2018-06-08T06:59:14.745Z,21.30
2018-06-08T07:01:42.388Z,21.30
2018-06-08T07:04:10.157Z,21.30
2018-06-08T07:06:38.227Z,21.20
2018-06-08T07:09:08.127Z,21.20
2018-06-08T07:11:35.868Z,21.20
2018-06-08T07:14:03.615Z,21.20
2018-06-08T07:16:31.189Z,21.10
2018-06-08T07:18:58.756Z,21.10
2018-06-08T07:23:55.989Z,21.20
2018-06-08T07:26:23.819Z,21.20
2018-06-08T07:28:51.491Z,21.40
2018-06-08T07:31:21.078Z,21.70
2018-06-08T07:36:23.091Z,22.10
2018-06-08T07:38:51.235Z,22.30
2018-06-08T07:41:19.192Z,22.40
2018-06-08T07:43:46.894Z,22.40
2018-06-08T07:46:15.592Z,22.50
2018-06-08T07:48:43.224Z,22.60
2018-06-08T07:51:10.798Z,22.70
2018-06-08T07:53:38.631Z,22.70
2018-06-08T07:56:06.202Z,22.60
2018-06-08T07:58:36.365Z,22.80
2018-06-08T08:01:04.326Z,23.00
2018-06-08T08:03:32.267Z,23.30
2018-06-08T08:05:59.880Z,23.40
2018-06-08T08:08:27.513Z,23.50
2018-06-08T08:10:55.314Z,23.40
2018-06-08T08:13:23.118Z,23.30
2018-06-08T08:15:50.835Z,23.50
2018-06-08T08:18:18.462Z,23.50
2018-06-08T08:20:46.012Z,23.60
2018-06-08T08:23:13.797Z,25.10
2018-06-08T08:25:41.328Z,25.30
2018-06-08T08:28:09.092Z,25.40
2018-06-08T08:30:36.668Z,25.10
2018-06-08T08:33:04.211Z,24.90
2018-06-08T08:35:31.739Z,24.80
2018-06-08T08:37:59.452Z,25.00
2018-06-08T08:40:27.297Z,24.90
2018-06-08T08:42:55.073Z,24.30
2018-06-08T08:45:22.707Z,24.20
2018-06-08T08:47:50.228Z,24.20
2018-06-08T08:50:18.659Z,24.10
2018-06-08T08:52:46.463Z,24.00
2018-06-08T08:55:13.968Z,23.90
2018-06-08T08:57:41.508Z,23.90
2018-06-08T09:00:09.201Z,23.80
2018-06-08T09:02:36.837Z,23.70
2018-06-08T09:05:04.512Z,23.60
2018-06-08T09:07:32.815Z,23.40
2018-06-08T09:10:00.547Z,23.10
2018-06-08T09:12:28.053Z,23.20
2018-06-08T09:14:55.576Z,23.10
2018-06-08T09:17:23.099Z,22.90
2018-06-08T09:19:50.648Z,22.90
2018-06-08T09:22:18.188Z,22.70
2018-06-08T09:24:45.748Z,22.70
2018-06-08T09:27:13.276Z,22.50
2018-06-08T09:29:40.838Z,22.40
2018-06-08T09:32:08.571Z,22.30
2018-06-08T09:34:36.366Z,22.30
2018-06-08T09:37:04.099Z,22.20
2018-06-08T09:39:31.694Z,22.10
2018-06-08T09:41:59.217Z,22.10
2018-06-08T09:44:27.009Z,21.60
2018-06-08T09:46:54.531Z,21.50
2018-06-08T09:49:22.094Z,21.50
2018-06-08T09:51:49.632Z,21.40
2018-06-08T09:54:17.290Z,21.30
2018-06-08T09:56:44.886Z,21.30
2018-06-08T09:59:12.421Z,21.20
2018-06-08T10:01:40.029Z,21.00
2018-06-08T10:04:07.635Z,20.90
2018-06-08T10:06:35.316Z,20.90
2018-06-08T10:09:03.428Z,21.00
2018-06-08T10:11:31.051Z,21.00
2018-06-08T10:13:58.594Z,20.70
2018-06-08T10:16:26.185Z,20.60
2018-06-08T10:18:53.787Z,20.60
2018-06-08T10:21:22.726Z,20.40
2018-06-08T10:23:50.272Z,20.40
2018-06-08T10:26:18.217Z,20.40
2018-06-08T10:31:13.772Z,20.60
2018-06-08T10:33:41.307Z,20.60
2018-06-08T10:36:08.844Z,20.60
2018-06-08T10:38:38.404Z,20.60
2018-06-08T10:41:05.938Z,20.70
2018-06-08T10:43:33.463Z,20.60
2018-06-08T10:46:01.005Z,20.40
2018-06-08T10:48:29.159Z,20.50
2018-06-08T10:50:56.778Z,20.50
2018-06-08T10:53:24.316Z,20.60
2018-06-08T10:55:51.871Z,20.80
2018-06-08T10:58:19.440Z,20.80
2018-06-08T11:00:47.179Z,20.80
2018-06-08T11:03:14.762Z,20.70
2018-06-08T11:08:09.823Z,20.70
2018-06-08T11:10:37.420Z,20.70
2018-06-08T11:13:04.956Z,20.80
2018-06-08T11:15:32.480Z,20.80
2018-06-08T11:20:28.582Z,20.70
2018-06-08T11:22:56.180Z,20.80
2018-06-08T11:25:23.752Z,20.60
2018-06-08T11:27:51.796Z,20.60
2018-06-08T11:30:19.335Z,20.80
2018-06-08T11:32:46.906Z,20.70
2018-06-08T11:35:14.469Z,20.80
2018-06-08T11:37:42.071Z,20.90
2018-06-08T11:40:09.737Z,20.80
2018-06-08T11:42:37.255Z,20.90
2018-06-08T11:45:04.847Z,20.80
2018-06-08T11:47:32.540Z,20.90
2018-06-08T11:50:00.321Z,21.00
2018-06-08T11:52:27.954Z,21.00
2018-06-08T11:54:55.544Z,21.10
2018-06-08T11:59:50.518Z,21.00
2018-06-08T12:02:18.059Z,21.00
2018-06-08T12:04:45.575Z,21.10
2018-06-08T12:07:13.215Z,21.10
2018-06-08T12:09:40.775Z,21.20
2018-06-08T12:12:08.335Z,21.20
2018-06-08T12:14:36.506Z,21.20
2018-06-08T12:17:04.082Z,21.40
2018-06-08T12:19:31.673Z,21.40
2018-06-08T12:21:59.321Z,21.40
2018-06-08T12:24:27.012Z,21.40
2018-06-08T12:26:54.650Z,21.40
2018-06-08T12:29:22.236Z,21.50
2018-06-08T12:31:49.816Z,21.60
2018-06-08T12:34:17.464Z,21.70
2018-06-08T12:36:45.049Z,21.70
2018-06-08T12:39:13.025Z,21.70
2018-06-08T12:41:40.654Z,21.80
2018-06-08T12:44:08.243Z,21.70
2018-06-08T12:46:35.899Z,21.80
2018-06-08T12:49:04.165Z,21.80
2018-06-08T12:51:31.729Z,21.80
2018-06-08T12:53:59.287Z,21.80
2018-06-08T12:56:26.919Z,21.90
2018-06-08T12:58:54.495Z,22.00
2018-06-08T13:01:22.113Z,21.90
2018-06-08T13:06:17.219Z,21.90
2018-06-08T13:08:44.863Z,21.80
2018-06-08T13:11:12.524Z,21.80
2018-06-08T13:13:43.089Z,21.90
2018-06-08T13:16:10.737Z,22.10
2018-06-08T13:18:41.481Z,22.00
2018-06-08T13:21:09.553Z,22.10
2018-06-08T13:23:37.708Z,22.10
2018-06-08T13:26:05.360Z,22.10
2018-06-08T13:28:33.135Z,22.10
2018-06-08T13:31:00.711Z,22.00
2018-06-08T13:33:28.259Z,22.10
2018-06-08T13:35:55.888Z,22.10
2018-06-08T13:38:23.460Z,22.10
2018-06-08T13:40:51.084Z,22.10
2018-06-08T13:43:18.746Z,22.10
2018-06-08T13:45:46.561Z,22.20
2018-06-08T13:48:14.330Z,22.30
2018-06-08T13:50:42.186Z,22.30
2018-06-08T13:53:09.792Z,22.40
2018-06-08T13:55:37.674Z,22.60
2018-06-08T13:58:05.239Z,23.00
2018-06-08T14:00:33.033Z,23.00
2018-06-08T14:03:00.601Z,23.00
2018-06-08T14:05:28.200Z,22.90
2018-06-08T14:07:55.770Z,23.00
2018-06-08T14:10:23.377Z,22.90
2018-06-08T14:12:51.107Z,23.00
2018-06-08T14:15:18.710Z,22.70
2018-06-08T14:17:46.460Z,22.70
2018-06-08T14:20:14.094Z,22.70
2018-06-08T14:22:41.716Z,22.70
2018-06-08T14:25:09.352Z,22.80
2018-06-08T14:27:36.933Z,22.90
2018-06-08T14:30:04.781Z,23.00
2018-06-08T14:32:33.830Z,23.20
2018-06-08T14:35:01.497Z,23.30
2018-06-08T14:37:29.110Z,23.40
2018-06-08T14:39:58.112Z,23.40
2018-06-08T14:42:25.833Z,23.40
2018-06-08T14:44:53.532Z,23.00
2018-06-08T14:47:21.168Z,23.20
2018-06-08T14:49:48.761Z,23.40
2018-06-08T14:52:17.545Z,23.70
2018-06-08T14:54:45.216Z,23.80
2018-06-08T14:57:12.854Z,23.70
2018-06-08T14:59:40.448Z,23.70
2018-06-08T15:02:08.136Z,23.70
2018-06-08T15:04:35.792Z,23.70
2018-06-08T15:07:03.464Z,23.80
2018-06-08T15:09:31.023Z,23.90
2018-06-08T15:11:58.817Z,23.80
2018-06-08T15:14:26.476Z,23.90
2018-06-08T15:19:21.638Z,24.10
2018-06-08T15:21:49.264Z,24.10
2018-06-08T15:24:16.882Z,23.90
2018-06-08T15:26:44.473Z,23.70
2018-06-08T15:29:12.099Z,23.60
2018-06-08T15:31:39.681Z,23.80
2018-06-08T15:34:07.274Z,23.90
2018-06-08T15:36:35.098Z,23.90
2018-06-08T15:39:03.143Z,24.00
2018-06-08T15:41:30.981Z,24.00
2018-06-08T15:43:58.524Z,23.90
2018-06-08T15:46:26.081Z,24.00
2018-06-08T15:48:53.673Z,24.00
2018-06-08T15:51:21.260Z,24.00
2018-06-08T15:53:48.856Z,23.90
2018-06-08T15:56:16.471Z,23.80
2018-06-08T15:58:45.256Z,23.90
2018-06-08T16:01:12.872Z,23.90
2018-06-08T16:03:40.709Z,23.80
2018-06-08T16:06:10.283Z,23.80
2018-06-08T16:08:38.000Z,23.80
2018-06-08T16:11:05.698Z,23.80
2018-06-08T16:13:33.539Z,23.80
2018-06-08T16:16:01.135Z,23.70
2018-06-08T16:18:28.748Z,23.60
2018-06-08T16:20:56.381Z,23.50
2018-06-08T16:23:23.984Z,23.60
2018-06-08T16:25:51.674Z,23.70
2018-06-08T16:28:19.411Z,23.70
2018-06-08T16:30:47.065Z,23.70
2018-06-08T16:33:15.981Z,23.70
2018-06-08T16:35:43.685Z,23.70
2018-06-08T16:38:11.333Z,23.60
2018-06-08T16:40:39.068Z,23.50
2018-06-08T16:43:06.680Z,23.50
2018-06-08T16:45:34.272Z,23.50
2018-06-08T16:48:01.865Z,23.60
2018-06-08T16:50:29.451Z,23.70
2018-06-08T16:52:57.068Z,23.60
2018-06-08T16:55:24.647Z,23.70
2018-06-08T16:57:52.190Z,23.80
2018-06-08T17:00:19.990Z,23.80
2018-06-08T17:02:47.676Z,23.90
2018-06-08T17:05:15.334Z,23.90
2018-06-08T17:07:42.973Z,23.80
2018-06-08T17:10:10.573Z,23.70
2018-06-08T17:12:38.215Z,23.70
2018-06-08T17:15:05.768Z,23.70
2018-06-08T17:17:33.380Z,23.60
2018-06-08T17:20:01.048Z,23.60
2018-06-08T17:22:28.622Z,23.60
2018-06-08T17:24:56.340Z,23.60
2018-06-08T17:27:23.938Z,23.50
2018-06-08T17:29:51.730Z,23.50
2018-06-08T17:32:19.875Z,23.40
2018-06-08T17:34:47.457Z,23.40
2018-06-08T17:37:15.120Z,23.30
2018-06-08T17:39:42.705Z,23.20
2018-06-08T17:42:10.271Z,23.30
2018-06-08T17:44:38.060Z,23.20
2018-06-08T17:47:05.782Z,23.20
2018-06-08T17:49:33.703Z,23.20
2018-06-08T17:52:01.279Z,23.20
2018-06-08T17:54:28.956Z,23.20
2018-06-08T17:56:56.779Z,23.30
2018-06-08T17:59:24.441Z,23.20
2018-06-08T18:01:52.652Z,23.20
2018-06-08T18:04:22.278Z,23.20
2018-06-08T18:06:49.990Z,23.00
2018-06-08T18:09:17.600Z,23.00
2018-06-08T18:11:45.365Z,23.00
2018-06-08T18:14:12.876Z,23.00
2018-06-08T18:16:40.484Z,22.90
2018-06-08T18:19:08.098Z,22.90
2018-06-08T18:21:37.088Z,22.80
2018-06-08T18:24:04.904Z,22.70
2018-06-08T18:26:32.528Z,22.80
2018-06-08T18:29:00.274Z,22.80
2018-06-08T18:31:27.992Z,22.70
2018-06-08T18:33:55.569Z,22.70
2018-06-08T18:36:23.197Z,22.50
2018-06-08T18:38:50.917Z,22.50
2018-06-08T18:41:18.677Z,22.50
2018-06-08T18:43:49.316Z,22.50
2018-06-08T18:46:16.899Z,22.40
2018-06-08T18:48:47.580Z,22.40
2018-06-08T18:51:15.176Z,22.40
2018-06-08T18:53:42.827Z,22.30
2018-06-08T18:56:10.608Z,22.30
2018-06-08T18:58:38.528Z,22.20
2018-06-08T19:01:06.532Z,22.20
2018-06-08T19:03:34.351Z,22.10
2018-06-08T19:06:02.033Z,22.00
2018-06-08T19:08:29.629Z,21.90
2018-06-08T19:10:57.240Z,21.90
2018-06-08T19:13:24.835Z,21.80
2018-06-08T19:15:52.387Z,21.80
2018-06-08T19:18:19.961Z,21.70
2018-06-08T19:20:47.566Z,21.80
2018-06-08T19:23:15.294Z,21.80
2018-06-08T19:25:42.850Z,21.80
2018-06-08T19:28:10.633Z,21.70
2018-06-08T19:30:38.932Z,21.70
2018-06-08T19:33:06.688Z,21.70
2018-06-08T19:35:34.322Z,21.60
2018-06-08T19:38:01.950Z,21.50
2018-06-08T19:40:29.639Z,21.50
2018-06-08T19:42:57.233Z,21.60
2018-06-08T19:45:29.013Z,21.50
2018-06-08T19:47:58.703Z,21.40
2018-06-08T19:50:26.464Z,21.30
2018-06-08T19:52:54.343Z,21.40
2018-06-08T19:55:21.952Z,21.30
2018-06-08T19:57:49.637Z,21.30
2018-06-08T20:00:17.535Z,21.30
2018-06-08T20:02:45.334Z,21.30
2018-06-08T20:05:13.138Z,21.30
2018-06-08T20:07:40.801Z,21.30
2018-06-08T20:10:08.408Z,21.20
2018-06-08T20:12:35.956Z,21.20
2018-06-08T20:15:04.102Z,21.10
2018-06-08T20:17:31.764Z,21.00
2018-06-08T20:19:59.603Z,21.10
2018-06-08T20:22:27.282Z,21.00
2018-06-08T20:24:55.104Z,21.00
2018-06-08T20:27:23.005Z,21.00
2018-06-08T20:29:50.802Z,21.00
2018-06-08T20:32:18.833Z,20.90
2018-06-08T20:34:46.763Z,20.90
2018-06-08T20:37:14.554Z,20.80
2018-06-08T20:39:42.140Z,20.80
2018-06-08T20:42:09.759Z,20.80
2018-06-08T20:44:37.422Z,20.80
2018-06-08T20:47:07.508Z,20.80
2018-06-08T20:49:35.164Z,20.80
2018-06-08T20:52:02.883Z,20.80
2018-06-08T20:54:30.656Z,20.70
2018-06-08T20:57:10.319Z,20.70
2018-06-08T20:59:38.092Z,20.60
2018-06-08T21:02:06.177Z,20.50
2018-06-08T21:04:33.727Z,20.50
2018-06-08T21:07:01.368Z,20.40
2018-06-08T21:09:29.460Z,20.40
2018-06-08T21:11:57.982Z,20.40
2018-06-08T21:14:26.190Z,20.40
2018-06-08T21:16:53.936Z,20.30
2018-06-08T21:19:21.862Z,20.20
2018-06-08T21:21:49.490Z,20.20
2018-06-08T21:24:17.087Z,20.20
2018-06-08T21:26:44.724Z,20.20
2018-06-08T21:29:12.343Z,20.20
2018-06-08T21:31:39.941Z,20.20
2018-06-08T21:34:07.762Z,20.20
2018-06-08T21:36:35.407Z,20.20
2018-06-08T21:39:04.398Z,20.20
2018-06-08T21:41:32.114Z,20.10
2018-06-08T21:44:00.618Z,20.10
2018-06-08T21:46:28.410Z,20.10
2018-06-08T21:48:56.104Z,20.00
2018-06-08T21:51:23.669Z,20.00
2018-06-08T21:53:51.833Z,20.00
2018-06-08T21:56:19.454Z,20.00
2018-06-08T21:58:47.064Z,20.00
2018-06-08T22:01:14.803Z,20.00
2018-06-08T22:03:42.459Z,19.90
2018-06-08T22:06:10.640Z,19.90
2018-06-08T22:08:38.339Z,19.90
2018-06-08T22:11:06.235Z,19.80
2018-06-08T22:13:33.907Z,19.90
2018-06-08T22:16:01.514Z,19.80
2018-06-08T22:18:29.248Z,19.80
2018-06-08T22:20:56.854Z,19.80
2018-06-08T22:23:24.593Z,19.80
2018-06-08T22:25:52.277Z,19.70
2018-06-08T22:28:20.105Z,19.70
2018-06-08T22:30:47.729Z,19.70
2018-06-08T22:33:15.375Z,19.70
2018-06-08T22:35:43.020Z,19.70
2018-06-08T22:38:10.685Z,19.70
2018-06-08T22:40:38.308Z,19.70
2018-06-08T22:43:05.897Z,19.70
2018-06-08T22:45:33.482Z,19.80
2018-06-08T22:48:01.155Z,19.80
2018-06-08T22:50:28.816Z,19.80
2018-06-08T22:52:56.481Z,19.80
2018-06-08T22:55:24.127Z,19.70
2018-06-08T22:57:51.723Z,19.80
2018-06-08T23:00:19.983Z,19.70
2018-06-08T23:02:47.980Z,19.70
2018-06-08T23:05:15.723Z,19.70
2018-06-08T23:07:43.428Z,19.80
2018-06-08T23:10:11.045Z,19.80
2018-06-08T23:12:38.677Z,19.90
2018-06-08T23:15:06.369Z,19.90
2018-06-08T23:17:33.985Z,19.90
2018-06-08T23:20:01.689Z,20.00
2018-06-08T23:22:29.321Z,20.00
2018-06-08T23:24:56.931Z,20.00
2018-06-08T23:27:24.539Z,20.00
2018-06-08T23:29:52.280Z,20.00
2018-06-08T23:32:20.016Z,20.00
2018-06-08T23:34:47.613Z,20.10
2018-06-08T23:37:15.394Z,20.10
2018-06-08T23:39:43.011Z,20.10
2018-06-08T23:42:10.612Z,20.10
2018-06-08T23:44:38.319Z,20.10
2018-06-08T23:47:05.966Z,20.20
2018-06-08T23:49:33.516Z,20.10
2018-06-08T23:52:01.154Z,20.20
2018-06-08T23:54:28.863Z,20.20
2018-06-08T23:59:24.049Z,20.20
